sensor_id;sensor_type;location;lat;lon;timestamp;P1;durP1;ratioP1;P2;durP2;ratioP2
82372;SDS011;72000;42.828;23.382;2024-02-15T00:04:05;8.20;;;3.22;;
82372;SDS011;72000;42.828;23.382;2024-02-15T00:06:31;8.80;;;3.70;;
82372;SDS011;72000;42.828;23.382;2024-02-15T00:08:57;9.73;;;3.70;;
82372;SDS011;72000;42.828;23.382;2024-02-15T00:11:22;8.30;;;3.45;;
82372;SDS011;72000;42.828;23.382;2024-02-15T00:13:48;7.53;;;3.13;;
82372;SDS011;72000;42.828;23.382;2024-02-15T00:16:13;8.48;;;3.60;;
82372;SDS011;72000;42.828;23.382;2024-02-15T00:18:40;7.45;;;3.15;;
82372;SDS011;72000;42.828;23.382;2024-02-15T00:21:05;9.57;;;3.90;;
82372;SDS011;72000;42.828;23.382;2024-02-15T00:23:32;9.70;;;3.92;;
82372;SDS011;72000;42.828;23.382;2024-02-15T00:25:58;7.60;;;3.30;;
82372;SDS011;72000;42.828;23.382;2024-02-15T00:28:24;8.82;;;3.92;;
82372;SDS011;72000;42.828;23.382;2024-02-15T00:30:51;9.32;;;3.92;;
82372;SDS011;72000;42.828;23.382;2024-02-15T00:33:17;7.90;;;3.38;;
82372;SDS011;72000;42.828;23.382;2024-02-15T00:35:43;10.55;;;3.85;;
82372;SDS011;72000;42.828;23.382;2024-02-15T00:38:08;9.68;;;3.95;;
82372;SDS011;72000;42.828;23.382;2024-02-15T00:40:34;9.13;;;3.60;;
82372;SDS011;72000;42.828;23.382;2024-02-15T00:42:59;7.95;;;3.42;;
82372;SDS011;72000;42.828;23.382;2024-02-15T00:45:25;8.43;;;3.92;;
82372;SDS011;72000;42.828;23.382;2024-02-15T00:47:50;8.85;;;3.97;;
82372;SDS011;72000;42.828;23.382;2024-02-15T00:50:16;9.82;;;3.95;;
82372;SDS011;72000;42.828;23.382;2024-02-15T00:52:42;10.20;;;3.72;;
82372;SDS011;72000;42.828;23.382;2024-02-15T00:55:07;10.70;;;4.15;;
82372;SDS011;72000;42.828;23.382;2024-02-15T00:57:33;8.15;;;3.85;;
82372;SDS011;72000;42.828;23.382;2024-02-15T00:59:59;8.65;;;4.07;;
82372;SDS011;72000;42.828;23.382;2024-02-15T01:02:25;9.35;;;3.83;;
82372;SDS011;72000;42.828;23.382;2024-02-15T01:04:51;8.95;;;3.72;;
82372;SDS011;72000;42.828;23.382;2024-02-15T01:07:18;8.90;;;4.10;;
82372;SDS011;72000;42.828;23.382;2024-02-15T01:09:43;7.72;;;4.13;;
82372;SDS011;72000;42.828;23.382;2024-02-15T01:12:10;10.00;;;3.85;;
82372;SDS011;72000;42.828;23.382;2024-02-15T01:14:36;9.30;;;3.92;;
82372;SDS011;72000;42.828;23.382;2024-02-15T01:17:02;10.43;;;4.35;;
82372;SDS011;72000;42.828;23.382;2024-02-15T01:19:27;12.15;;;4.32;;
82372;SDS011;72000;42.828;23.382;2024-02-15T01:21:53;8.90;;;3.95;;
82372;SDS011;72000;42.828;23.382;2024-02-15T01:24:18;9.88;;;3.85;;
82372;SDS011;72000;42.828;23.382;2024-02-15T01:26:44;9.65;;;3.92;;
82372;SDS011;72000;42.828;23.382;2024-02-15T01:29:09;10.02;;;4.40;;
82372;SDS011;72000;42.828;23.382;2024-02-15T01:31:37;9.32;;;4.40;;
82372;SDS011;72000;42.828;23.382;2024-02-15T01:34:03;10.95;;;4.38;;
82372;SDS011;72000;42.828;23.382;2024-02-15T01:36:29;9.25;;;4.35;;
82372;SDS011;72000;42.828;23.382;2024-02-15T01:38:55;8.52;;;4.10;;
82372;SDS011;72000;42.828;23.382;2024-02-15T01:41:20;8.15;;;4.00;;
82372;SDS011;72000;42.828;23.382;2024-02-15T01:43:46;10.52;;;4.50;;
82372;SDS011;72000;42.828;23.382;2024-02-15T01:46:13;11.15;;;4.30;;
82372;SDS011;72000;42.828;23.382;2024-02-15T01:51:06;7.93;;;3.80;;
82372;SDS011;72000;42.828;23.382;2024-02-15T01:53:32;10.10;;;4.07;;
82372;SDS011;72000;42.828;23.382;2024-02-15T01:55:59;8.23;;;3.85;;
82372;SDS011;72000;42.828;23.382;2024-02-15T01:58:27;9.13;;;4.20;;
82372;SDS011;72000;42.828;23.382;2024-02-15T02:00:53;10.50;;;4.22;;
82372;SDS011;72000;42.828;23.382;2024-02-15T02:03:21;9.30;;;4.47;;
82372;SDS011;72000;42.828;23.382;2024-02-15T02:05:47;9.93;;;4.13;;
82372;SDS011;72000;42.828;23.382;2024-02-15T02:08:12;10.73;;;4.25;;
82372;SDS011;72000;42.828;23.382;2024-02-15T02:10:38;8.90;;;4.20;;
82372;SDS011;72000;42.828;23.382;2024-02-15T02:13:04;9.48;;;3.67;;
82372;SDS011;72000;42.828;23.382;2024-02-15T02:15:34;9.32;;;4.03;;
82372;SDS011;72000;42.828;23.382;2024-02-15T02:18:03;10.75;;;3.80;;
82372;SDS011;72000;42.828;23.382;2024-02-15T02:20:34;8.25;;;3.95;;
82372;SDS011;72000;42.828;23.382;2024-02-15T02:23:03;8.57;;;4.22;;
82372;SDS011;72000;42.828;23.382;2024-02-15T02:25:33;9.80;;;4.35;;
82372;SDS011;72000;42.828;23.382;2024-02-15T02:27:59;9.40;;;4.10;;
82372;SDS011;72000;42.828;23.382;2024-02-15T02:30:25;9.57;;;4.10;;
82372;SDS011;72000;42.828;23.382;2024-02-15T02:32:55;8.73;;;3.88;;
82372;SDS011;72000;42.828;23.382;2024-02-15T02:35:22;10.80;;;4.10;;
82372;SDS011;72000;42.828;23.382;2024-02-15T02:37:48;10.38;;;4.05;;
82372;SDS011;72000;42.828;23.382;2024-02-15T02:40:14;8.95;;;4.45;;
82372;SDS011;72000;42.828;23.382;2024-02-15T02:42:48;10.05;;;4.05;;
82372;SDS011;72000;42.828;23.382;2024-02-15T02:45:14;8.05;;;3.88;;
82372;SDS011;72000;42.828;23.382;2024-02-15T02:47:39;8.43;;;3.92;;
82372;SDS011;72000;42.828;23.382;2024-02-15T02:50:05;8.48;;;3.80;;
82372;SDS011;72000;42.828;23.382;2024-02-15T02:52:33;9.93;;;3.90;;
82372;SDS011;72000;42.828;23.382;2024-02-15T02:54:58;10.52;;;4.18;;
82372;SDS011;72000;42.828;23.382;2024-02-15T02:57:24;7.95;;;3.90;;
82372;SDS011;72000;42.828;23.382;2024-02-15T02:59:51;9.05;;;4.22;;
82372;SDS011;72000;42.828;23.382;2024-02-15T03:02:16;10.95;;;4.43;;
82372;SDS011;72000;42.828;23.382;2024-02-15T03:04:43;8.68;;;3.88;;
82372;SDS011;72000;42.828;23.382;2024-02-15T03:07:09;8.07;;;3.80;;
82372;SDS011;72000;42.828;23.382;2024-02-15T03:09:34;8.68;;;3.92;;
82372;SDS011;72000;42.828;23.382;2024-02-15T03:12:02;10.35;;;4.18;;
82372;SDS011;72000;42.828;23.382;2024-02-15T03:14:28;9.43;;;3.88;;
82372;SDS011;72000;42.828;23.382;2024-02-15T03:19:20;8.75;;;3.67;;
82372;SDS011;72000;42.828;23.382;2024-02-15T03:21:47;8.90;;;4.15;;
82372;SDS011;72000;42.828;23.382;2024-02-15T03:24:12;9.27;;;4.00;;
82372;SDS011;72000;42.828;23.382;2024-02-15T03:26:38;9.40;;;4.10;;
82372;SDS011;72000;42.828;23.382;2024-02-15T03:29:05;9.02;;;4.05;;
82372;SDS011;72000;42.828;23.382;2024-02-15T03:31:32;10.48;;;3.92;;
82372;SDS011;72000;42.828;23.382;2024-02-15T03:34:01;10.88;;;3.80;;
82372;SDS011;72000;42.828;23.382;2024-02-15T03:36:30;8.15;;;4.00;;
82372;SDS011;72000;42.828;23.382;2024-02-15T03:38:55;7.78;;;3.90;;
82372;SDS011;72000;42.828;23.382;2024-02-15T03:41:21;8.93;;;3.80;;
82372;SDS011;72000;42.828;23.382;2024-02-15T03:43:47;8.27;;;3.90;;
82372;SDS011;72000;42.828;23.382;2024-02-15T03:46:13;9.02;;;3.88;;
82372;SDS011;72000;42.828;23.382;2024-02-15T03:48:41;7.13;;;3.50;;
82372;SDS011;72000;42.828;23.382;2024-02-15T03:51:09;8.95;;;4.00;;
82372;SDS011;72000;42.828;23.382;2024-02-15T03:53:34;9.40;;;4.20;;
82372;SDS011;72000;42.828;23.382;2024-02-15T03:56:03;7.93;;;3.60;;
82372;SDS011;72000;42.828;23.382;2024-02-15T03:58:29;8.20;;;3.60;;
82372;SDS011;72000;42.828;23.382;2024-02-15T04:00:58;10.23;;;3.95;;
82372;SDS011;72000;42.828;23.382;2024-02-15T04:03:24;9.43;;;4.40;;
82372;SDS011;72000;42.828;23.382;2024-02-15T04:05:49;10.05;;;4.30;;
82372;SDS011;72000;42.828;23.382;2024-02-15T04:08:15;10.50;;;4.20;;
82372;SDS011;72000;42.828;23.382;2024-02-15T04:10:42;8.75;;;4.13;;
82372;SDS011;72000;42.828;23.382;2024-02-15T04:13:07;9.40;;;4.22;;
82372;SDS011;72000;42.828;23.382;2024-02-15T04:15:33;8.13;;;3.80;;
82372;SDS011;72000;42.828;23.382;2024-02-15T04:17:59;9.57;;;3.92;;
82372;SDS011;72000;42.828;23.382;2024-02-15T04:20:25;8.23;;;3.70;;
82372;SDS011;72000;42.828;23.382;2024-02-15T04:22:51;11.38;;;4.70;;
82372;SDS011;72000;42.828;23.382;2024-02-15T04:25:18;10.77;;;4.47;;
82372;SDS011;72000;42.828;23.382;2024-02-15T04:27:45;11.68;;;5.10;;
82372;SDS011;72000;42.828;23.382;2024-02-15T04:30:14;12.27;;;3.80;;
82372;SDS011;72000;42.828;23.382;2024-02-15T04:32:44;11.93;;;4.25;;
82372;SDS011;72000;42.828;23.382;2024-02-15T04:35:10;11.57;;;4.30;;
82372;SDS011;72000;42.828;23.382;2024-02-15T04:37:36;8.95;;;4.20;;
82372;SDS011;72000;42.828;23.382;2024-02-15T04:40:02;8.60;;;3.70;;
82372;SDS011;72000;42.828;23.382;2024-02-15T04:45:03;9.55;;;4.35;;
82372;SDS011;72000;42.828;23.382;2024-02-15T04:47:33;10.60;;;3.92;;
82372;SDS011;72000;42.828;23.382;2024-02-15T04:49:59;9.90;;;4.25;;
82372;SDS011;72000;42.828;23.382;2024-02-15T04:52:25;11.40;;;4.32;;
82372;SDS011;72000;42.828;23.382;2024-02-15T04:54:51;7.88;;;4.15;;
82372;SDS011;72000;42.828;23.382;2024-02-15T04:57:20;8.48;;;3.53;;
82372;SDS011;72000;42.828;23.382;2024-02-15T04:59:45;10.07;;;4.20;;
82372;SDS011;72000;42.828;23.382;2024-02-15T05:02:13;8.85;;;3.88;;
82372;SDS011;72000;42.828;23.382;2024-02-15T05:04:39;8.55;;;3.83;;
82372;SDS011;72000;42.828;23.382;2024-02-15T05:07:07;11.88;;;4.15;;
82372;SDS011;72000;42.828;23.382;2024-02-15T05:09:33;9.65;;;4.20;;
82372;SDS011;72000;42.828;23.382;2024-02-15T05:11:59;14.35;;;6.20;;
82372;SDS011;72000;42.828;23.382;2024-02-15T05:14:27;30.40;;;10.93;;
82372;SDS011;72000;42.828;23.382;2024-02-15T05:16:53;30.10;;;10.93;;
82372;SDS011;72000;42.828;23.382;2024-02-15T05:19:19;22.65;;;8.52;;
82372;SDS011;72000;42.828;23.382;2024-02-15T05:21:45;17.00;;;6.70;;
82372;SDS011;72000;42.828;23.382;2024-02-15T05:24:14;11.07;;;4.60;;
82372;SDS011;72000;42.828;23.382;2024-02-15T05:26:41;12.43;;;5.30;;
82372;SDS011;72000;42.828;23.382;2024-02-15T05:29:13;9.60;;;4.55;;
82372;SDS011;72000;42.828;23.382;2024-02-15T05:31:39;10.18;;;4.03;;
82372;SDS011;72000;42.828;23.382;2024-02-15T05:34:06;8.90;;;4.28;;
82372;SDS011;72000;42.828;23.382;2024-02-15T05:36:36;10.23;;;4.40;;
82372;SDS011;72000;42.828;23.382;2024-02-15T05:39:03;11.40;;;4.80;;
82372;SDS011;72000;42.828;23.382;2024-02-15T05:41:30;9.93;;;4.22;;
82372;SDS011;72000;42.828;23.382;2024-02-15T05:43:57;9.65;;;4.25;;
82372;SDS011;72000;42.828;23.382;2024-02-15T05:46:23;10.07;;;4.28;;
82372;SDS011;72000;42.828;23.382;2024-02-15T05:48:48;9.38;;;4.32;;
82372;SDS011;72000;42.828;23.382;2024-02-15T05:51:14;9.60;;;4.10;;
82372;SDS011;72000;42.828;23.382;2024-02-15T05:53:40;38.63;;;13.50;;
82372;SDS011;72000;42.828;23.382;2024-02-15T05:56:06;23.10;;;8.77;;
82372;SDS011;72000;42.828;23.382;2024-02-15T05:58:33;24.73;;;9.40;;
82372;SDS011;72000;42.828;23.382;2024-02-15T06:00:59;24.98;;;9.15;;
82372;SDS011;72000;42.828;23.382;2024-02-15T06:03:30;13.95;;;5.93;;
82372;SDS011;72000;42.828;23.382;2024-02-15T06:06:00;14.02;;;5.60;;
82372;SDS011;72000;42.828;23.382;2024-02-15T06:08:27;15.68;;;5.80;;
82372;SDS011;72000;42.828;23.382;2024-02-15T06:10:56;17.73;;;6.93;;
82372;SDS011;72000;42.828;23.382;2024-02-15T06:13:22;32.33;;;12.30;;
82372;SDS011;72000;42.828;23.382;2024-02-15T06:15:48;29.15;;;11.20;;
82372;SDS011;72000;42.828;23.382;2024-02-15T06:18:18;19.95;;;7.00;;
82372;SDS011;72000;42.828;23.382;2024-02-15T06:20:47;16.63;;;6.40;;
82372;SDS011;72000;42.828;23.382;2024-02-15T06:23:15;14.18;;;6.15;;
82372;SDS011;72000;42.828;23.382;2024-02-15T06:25:41;16.80;;;7.50;;
82372;SDS011;72000;42.828;23.382;2024-02-15T06:28:07;16.58;;;6.60;;
82372;SDS011;72000;42.828;23.382;2024-02-15T06:30:47;15.50;;;5.88;;
82372;SDS011;72000;42.828;23.382;2024-02-15T06:33:31;9.90;;;4.68;;
82372;SDS011;72000;42.828;23.382;2024-02-15T06:36:15;12.80;;;4.57;;
82372;SDS011;72000;42.828;23.382;2024-02-15T06:38:59;9.40;;;4.13;;
82372;SDS011;72000;42.828;23.382;2024-02-15T06:41:42;9.05;;;4.13;;
82372;SDS011;72000;42.828;23.382;2024-02-15T06:44:08;12.05;;;4.68;;
82372;SDS011;72000;42.828;23.382;2024-02-15T06:46:34;10.20;;;4.10;;
82372;SDS011;72000;42.828;23.382;2024-02-15T06:49:00;10.23;;;4.43;;
82372;SDS011;72000;42.828;23.382;2024-02-15T06:51:25;10.90;;;4.47;;
82372;SDS011;72000;42.828;23.382;2024-02-15T06:53:51;10.13;;;4.13;;
82372;SDS011;72000;42.828;23.382;2024-02-15T06:56:20;12.77;;;4.88;;
82372;SDS011;72000;42.828;23.382;2024-02-15T06:58:46;12.07;;;5.10;;
82372;SDS011;72000;42.828;23.382;2024-02-15T07:01:13;14.55;;;6.22;;
82372;SDS011;72000;42.828;23.382;2024-02-15T07:03:41;14.70;;;6.03;;
82372;SDS011;72000;42.828;23.382;2024-02-15T07:06:09;12.52;;;5.70;;
82372;SDS011;72000;42.828;23.382;2024-02-15T07:08:35;16.92;;;5.65;;
82372;SDS011;72000;42.828;23.382;2024-02-15T07:11:00;15.05;;;5.90;;
82372;SDS011;72000;42.828;23.382;2024-02-15T07:13:27;12.93;;;5.85;;
82372;SDS011;72000;42.828;23.382;2024-02-15T07:15:53;14.07;;;5.47;;
82372;SDS011;72000;42.828;23.382;2024-02-15T07:18:18;11.32;;;4.75;;
82372;SDS011;72000;42.828;23.382;2024-02-15T07:20:47;8.98;;;4.07;;
82372;SDS011;72000;42.828;23.382;2024-02-15T07:23:13;10.25;;;4.43;;
82372;SDS011;72000;42.828;23.382;2024-02-15T07:25:39;12.40;;;4.40;;
82372;SDS011;72000;42.828;23.382;2024-02-15T07:28:05;10.90;;;4.15;;
82372;SDS011;72000;42.828;23.382;2024-02-15T07:32:57;11.95;;;4.28;;
82372;SDS011;72000;42.828;23.382;2024-02-15T07:35:23;8.68;;;3.90;;
82372;SDS011;72000;42.828;23.382;2024-02-15T07:37:53;8.98;;;3.65;;
82372;SDS011;72000;42.828;23.382;2024-02-15T07:40:21;10.95;;;4.05;;
82372;SDS011;72000;42.828;23.382;2024-02-15T07:42:48;8.77;;;3.83;;
82372;SDS011;72000;42.828;23.382;2024-02-15T07:47:39;9.68;;;4.15;;
82372;SDS011;72000;42.828;23.382;2024-02-15T07:50:05;10.20;;;4.47;;
82372;SDS011;72000;42.828;23.382;2024-02-15T07:52:30;10.65;;;4.53;;
82372;SDS011;72000;42.828;23.382;2024-02-15T07:54:56;11.25;;;4.43;;
82372;SDS011;72000;42.828;23.382;2024-02-15T07:57:21;9.73;;;4.55;;
82372;SDS011;72000;42.828;23.382;2024-02-15T07:59:48;11.32;;;5.15;;
82372;SDS011;72000;42.828;23.382;2024-02-15T08:02:14;12.52;;;4.80;;
82372;SDS011;72000;42.828;23.382;2024-02-15T08:04:43;9.40;;;4.30;;
82372;SDS011;72000;42.828;23.382;2024-02-15T08:07:09;9.45;;;4.57;;
82372;SDS011;72000;42.828;23.382;2024-02-15T08:09:39;10.68;;;4.32;;
82372;SDS011;72000;42.828;23.382;2024-02-15T08:12:06;13.82;;;5.00;;
82372;SDS011;72000;42.828;23.382;2024-02-15T08:14:32;11.07;;;4.55;;
82372;SDS011;72000;42.828;23.382;2024-02-15T08:16:57;11.93;;;5.13;;
82372;SDS011;72000;42.828;23.382;2024-02-15T08:19:23;8.85;;;4.45;;
82372;SDS011;72000;42.828;23.382;2024-02-15T08:21:49;10.98;;;4.47;;
82372;SDS011;72000;42.828;23.382;2024-02-15T08:24:16;10.50;;;4.38;;
82372;SDS011;72000;42.828;23.382;2024-02-15T08:26:42;9.50;;;4.07;;
82372;SDS011;72000;42.828;23.382;2024-02-15T08:29:08;9.50;;;4.07;;
82372;SDS011;72000;42.828;23.382;2024-02-15T08:31:38;10.18;;;4.07;;
82372;SDS011;72000;42.828;23.382;2024-02-15T08:34:04;11.85;;;4.38;;
82372;SDS011;72000;42.828;23.382;2024-02-15T08:36:30;10.90;;;4.57;;
82372;SDS011;72000;42.828;23.382;2024-02-15T08:38:56;11.63;;;4.50;;
82372;SDS011;72000;42.828;23.382;2024-02-15T08:41:22;12.60;;;4.40;;
82372;SDS011;72000;42.828;23.382;2024-02-15T08:43:52;9.75;;;4.20;;
82372;SDS011;72000;42.828;23.382;2024-02-15T08:48:44;11.80;;;4.25;;
82372;SDS011;72000;42.828;23.382;2024-02-15T08:51:11;10.10;;;4.20;;
82372;SDS011;72000;42.828;23.382;2024-02-15T08:53:37;11.10;;;4.18;;
82372;SDS011;72000;42.828;23.382;2024-02-15T08:56:06;9.52;;;4.15;;
82372;SDS011;72000;42.828;23.382;2024-02-15T08:58:34;9.93;;;4.05;;
82372;SDS011;72000;42.828;23.382;2024-02-15T09:01:00;9.15;;;4.32;;
82372;SDS011;72000;42.828;23.382;2024-02-15T09:03:25;10.10;;;4.18;;
82372;SDS011;72000;42.828;23.382;2024-02-15T09:05:51;10.05;;;4.15;;
82372;SDS011;72000;42.828;23.382;2024-02-15T09:08:16;9.85;;;4.28;;
82372;SDS011;72000;42.828;23.382;2024-02-15T09:10:54;10.40;;;4.10;;
82372;SDS011;72000;42.828;23.382;2024-02-15T09:13:20;8.45;;;4.35;;
82372;SDS011;72000;42.828;23.382;2024-02-15T09:15:45;10.20;;;4.63;;
82372;SDS011;72000;42.828;23.382;2024-02-15T09:18:12;11.05;;;5.03;;
82372;SDS011;72000;42.828;23.382;2024-02-15T09:20:38;12.13;;;4.68;;
82372;SDS011;72000;42.828;23.382;2024-02-15T09:23:09;10.27;;;4.43;;
82372;SDS011;72000;42.828;23.382;2024-02-15T09:25:40;11.65;;;4.18;;
82372;SDS011;72000;42.828;23.382;2024-02-15T09:28:09;10.18;;;4.40;;
82372;SDS011;72000;42.828;23.382;2024-02-15T09:30:35;9.45;;;4.32;;
82372;SDS011;72000;42.828;23.382;2024-02-15T09:33:00;10.52;;;4.20;;
82372;SDS011;72000;42.828;23.382;2024-02-15T09:35:30;8.70;;;3.60;;
82372;SDS011;72000;42.828;23.382;2024-02-15T09:37:56;8.90;;;4.07;;
82372;SDS011;72000;42.828;23.382;2024-02-15T09:40:21;9.45;;;4.07;;
82372;SDS011;72000;42.828;23.382;2024-02-15T09:42:51;10.43;;;4.00;;
82372;SDS011;72000;42.828;23.382;2024-02-15T09:45:18;8.73;;;3.47;;
82372;SDS011;72000;42.828;23.382;2024-02-15T09:47:45;10.25;;;4.22;;
82372;SDS011;72000;42.828;23.382;2024-02-15T09:50:14;11.20;;;3.70;;
82372;SDS011;72000;42.828;23.382;2024-02-15T09:52:45;9.07;;;4.10;;
82372;SDS011;72000;42.828;23.382;2024-02-15T09:55:13;9.23;;;4.20;;
82372;SDS011;72000;42.828;23.382;2024-02-15T09:57:42;9.40;;;3.90;;
82372;SDS011;72000;42.828;23.382;2024-02-15T10:00:08;9.57;;;3.85;;
82372;SDS011;72000;42.828;23.382;2024-02-15T10:02:39;8.88;;;3.88;;
82372;SDS011;72000;42.828;23.382;2024-02-15T10:05:05;10.77;;;4.55;;
82372;SDS011;72000;42.828;23.382;2024-02-15T10:07:40;9.23;;;3.90;;
82372;SDS011;72000;42.828;23.382;2024-02-15T10:10:15;8.52;;;4.25;;
82372;SDS011;72000;42.828;23.382;2024-02-15T10:12:42;10.23;;;4.22;;
82372;SDS011;72000;42.828;23.382;2024-02-15T10:15:58;8.63;;;3.78;;
82372;SDS011;72000;42.828;23.382;2024-02-15T10:18:06;10.50;;;4.05;;
82372;SDS011;72000;42.828;23.382;2024-02-15T10:20:34;10.20;;;3.78;;
82372;SDS011;72000;42.828;23.382;2024-02-15T10:25:34;8.77;;;3.70;;
82372;SDS011;72000;42.828;23.382;2024-02-15T10:28:07;7.28;;;3.40;;
82372;SDS011;72000;42.828;23.382;2024-02-15T10:30:34;8.45;;;3.78;;
82372;SDS011;72000;42.828;23.382;2024-02-15T10:33:00;8.15;;;3.60;;
82372;SDS011;72000;42.828;23.382;2024-02-15T10:35:27;7.25;;;3.50;;
82372;SDS011;72000;42.828;23.382;2024-02-15T10:37:54;8.50;;;3.97;;
82372;SDS011;72000;42.828;23.382;2024-02-15T10:40:33;8.63;;;3.90;;
82372;SDS011;72000;42.828;23.382;2024-02-15T10:42:59;8.23;;;4.00;;
82372;SDS011;72000;42.828;23.382;2024-02-15T10:45:28;8.18;;;3.58;;
82372;SDS011;72000;42.828;23.382;2024-02-15T10:47:56;9.07;;;3.88;;
82372;SDS011;72000;42.828;23.382;2024-02-15T10:52:50;7.93;;;3.60;;
82372;SDS011;72000;42.828;23.382;2024-02-15T10:55:40;7.75;;;3.97;;
82372;SDS011;72000;42.828;23.382;2024-02-15T10:58:08;7.72;;;3.30;;
82372;SDS011;72000;42.828;23.382;2024-02-15T11:00:34;6.97;;;3.38;;
82372;SDS011;72000;42.828;23.382;2024-02-15T11:03:05;6.93;;;3.33;;
82372;SDS011;72000;42.828;23.382;2024-02-15T11:05:36;8.90;;;3.63;;
82372;SDS011;72000;42.828;23.382;2024-02-15T11:08:05;10.18;;;4.00;;
82372;SDS011;72000;42.828;23.382;2024-02-15T11:10:33;7.10;;;3.30;;
82372;SDS011;72000;42.828;23.382;2024-02-15T11:12:59;8.48;;;3.42;;
82372;SDS011;72000;42.828;23.382;2024-02-15T11:15:46;8.50;;;3.60;;
82372;SDS011;72000;42.828;23.382;2024-02-15T11:21:11;7.60;;;3.22;;
82372;SDS011;72000;42.828;23.382;2024-02-15T11:23:37;8.02;;;3.50;;
82372;SDS011;72000;42.828;23.382;2024-02-15T11:26:03;6.18;;;3.03;;
82372;SDS011;72000;42.828;23.382;2024-02-15T11:30:55;9.68;;;3.95;;
82372;SDS011;72000;42.828;23.382;2024-02-15T11:33:34;8.45;;;3.88;;
82372;SDS011;72000;42.828;23.382;2024-02-15T11:36:10;8.93;;;3.72;;
82372;SDS011;72000;42.828;23.382;2024-02-15T11:38:37;6.88;;;3.55;;
82372;SDS011;72000;42.828;23.382;2024-02-15T11:41:06;7.90;;;3.47;;
82372;SDS011;72000;42.828;23.382;2024-02-15T11:43:45;9.10;;;3.90;;
82372;SDS011;72000;42.828;23.382;2024-02-15T11:46:16;8.23;;;3.47;;
82372;SDS011;72000;42.828;23.382;2024-02-15T11:48:45;8.00;;;3.90;;
82372;SDS011;72000;42.828;23.382;2024-02-15T11:54:11;7.70;;;3.28;;
82372;SDS011;72000;42.828;23.382;2024-02-15T11:59:39;9.07;;;3.80;;
82372;SDS011;72000;42.828;23.382;2024-02-15T12:02:19;7.88;;;3.80;;
82372;SDS011;72000;42.828;23.382;2024-02-15T12:05:04;9.70;;;3.63;;
82372;SDS011;72000;42.828;23.382;2024-02-15T12:07:49;9.80;;;4.18;;
82372;SDS011;72000;42.828;23.382;2024-02-15T12:10:33;9.70;;;3.58;;
82372;SDS011;72000;42.828;23.382;2024-02-15T12:13:17;9.07;;;3.65;;
82372;SDS011;72000;42.828;23.382;2024-02-15T12:16:02;8.30;;;3.80;;
82372;SDS011;72000;42.828;23.382;2024-02-15T12:21:18;7.53;;;2.97;;
82372;SDS011;72000;42.828;23.382;2024-02-15T12:23:48;6.45;;;2.90;;
82372;SDS011;72000;42.828;23.382;2024-02-15T12:26:18;7.07;;;3.47;;
82372;SDS011;72000;42.828;23.382;2024-02-15T12:28:52;5.80;;;2.70;;
82372;SDS011;72000;42.828;23.382;2024-02-15T12:31:22;6.63;;;3.05;;
82372;SDS011;72000;42.828;23.382;2024-02-15T12:33:59;5.38;;;2.47;;
82372;SDS011;72000;42.828;23.382;2024-02-15T12:36:32;6.57;;;3.08;;
82372;SDS011;72000;42.828;23.382;2024-02-15T12:39:07;7.13;;;2.85;;
82372;SDS011;72000;42.828;23.382;2024-02-15T12:41:39;8.07;;;3.25;;
82372;SDS011;72000;42.828;23.382;2024-02-15T12:44:06;8.27;;;3.38;;
82372;SDS011;72000;42.828;23.382;2024-02-15T12:46:35;9.43;;;3.67;;
82372;SDS011;72000;42.828;23.382;2024-02-15T12:49:12;7.22;;;3.38;;
82372;SDS011;72000;42.828;23.382;2024-02-15T12:51:54;7.10;;;3.45;;
82372;SDS011;72000;42.828;23.382;2024-02-15T12:55:09;8.48;;;3.85;;
82372;SDS011;72000;42.828;23.382;2024-02-15T12:57:42;6.03;;;3.17;;
82372;SDS011;72000;42.828;23.382;2024-02-15T13:00:11;6.05;;;3.13;;
82372;SDS011;72000;42.828;23.382;2024-02-15T13:02:44;5.53;;;2.60;;
82372;SDS011;72000;42.828;23.382;2024-02-15T13:05:10;7.03;;;2.72;;
82372;SDS011;72000;42.828;23.382;2024-02-15T13:07:37;5.10;;;2.45;;
82372;SDS011;72000;42.828;23.382;2024-02-15T13:10:03;5.63;;;2.10;;
82372;SDS011;72000;42.828;23.382;2024-02-15T13:12:32;5.32;;;2.13;;
82372;SDS011;72000;42.828;23.382;2024-02-15T13:15:01;4.82;;;2.05;;
82372;SDS011;72000;42.828;23.382;2024-02-15T13:17:29;5.95;;;2.30;;
82372;SDS011;72000;42.828;23.382;2024-02-15T13:19:56;4.82;;;2.00;;
82372;SDS011;72000;42.828;23.382;2024-02-15T13:22:31;4.72;;;2.17;;
82372;SDS011;72000;42.828;23.382;2024-02-15T13:24:58;4.85;;;2.10;;
82372;SDS011;72000;42.828;23.382;2024-02-15T13:29:50;3.50;;;1.70;;
82372;SDS011;72000;42.828;23.382;2024-02-15T13:32:15;4.10;;;1.90;;
82372;SDS011;72000;42.828;23.382;2024-02-15T13:34:46;5.35;;;1.90;;
82372;SDS011;72000;42.828;23.382;2024-02-15T13:37:16;4.28;;;2.00;;
82372;SDS011;72000;42.828;23.382;2024-02-15T13:39:43;4.72;;;1.83;;
82372;SDS011;72000;42.828;23.382;2024-02-15T13:42:11;4.22;;;1.80;;
82372;SDS011;72000;42.828;23.382;2024-02-15T13:44:37;4.28;;;1.80;;
82372;SDS011;72000;42.828;23.382;2024-02-15T13:47:02;4.00;;;1.80;;
82372;SDS011;72000;42.828;23.382;2024-02-15T13:49:28;3.75;;;1.83;;
82372;SDS011;72000;42.828;23.382;2024-02-15T13:51:57;3.88;;;1.70;;
82372;SDS011;72000;42.828;23.382;2024-02-15T13:54:27;4.15;;;1.70;;
82372;SDS011;72000;42.828;23.382;2024-02-15T13:56:54;4.05;;;1.67;;
82372;SDS011;72000;42.828;23.382;2024-02-15T13:59:21;5.28;;;1.65;;
82372;SDS011;72000;42.828;23.382;2024-02-15T14:01:48;4.95;;;1.98;;
82372;SDS011;72000;42.828;23.382;2024-02-15T14:04:15;4.50;;;2.13;;
82372;SDS011;72000;42.828;23.382;2024-02-15T14:06:41;4.18;;;2.00;;
82372;SDS011;72000;42.828;23.382;2024-02-15T14:09:09;5.80;;;2.22;;
82372;SDS011;72000;42.828;23.382;2024-02-15T14:11:37;5.88;;;2.60;;
82372;SDS011;72000;42.828;23.382;2024-02-15T14:14:03;5.40;;;2.55;;
82372;SDS011;72000;42.828;23.382;2024-02-15T14:16:30;5.47;;;2.50;;
82372;SDS011;72000;42.828;23.382;2024-02-15T14:18:56;4.43;;;1.95;;
82372;SDS011;72000;42.828;23.382;2024-02-15T14:21:21;5.30;;;2.47;;
82372;SDS011;72000;42.828;23.382;2024-02-15T14:23:47;4.78;;;2.08;;
82372;SDS011;72000;42.828;23.382;2024-02-15T14:26:13;3.63;;;1.92;;
82372;SDS011;72000;42.828;23.382;2024-02-15T14:28:39;4.43;;;1.70;;
82372;SDS011;72000;42.828;23.382;2024-02-15T14:31:07;4.10;;;1.80;;
82372;SDS011;72000;42.828;23.382;2024-02-15T14:34:04;4.28;;;1.80;;
82372;SDS011;72000;42.828;23.382;2024-02-15T14:36:30;4.03;;;1.70;;
82372;SDS011;72000;42.828;23.382;2024-02-15T14:38:56;4.40;;;1.67;;
82372;SDS011;72000;42.828;23.382;2024-02-15T14:41:21;5.30;;;2.10;;
82372;SDS011;72000;42.828;23.382;2024-02-15T14:43:48;10.27;;;3.20;;
82372;SDS011;72000;42.828;23.382;2024-02-15T14:46:13;6.90;;;2.50;;
82372;SDS011;72000;42.828;23.382;2024-02-15T14:48:39;7.25;;;2.80;;
82372;SDS011;72000;42.828;23.382;2024-02-15T14:51:09;6.05;;;2.75;;
82372;SDS011;72000;42.828;23.382;2024-02-15T14:53:35;5.75;;;2.30;;
82372;SDS011;72000;42.828;23.382;2024-02-15T14:56:00;7.60;;;2.88;;
82372;SDS011;72000;42.828;23.382;2024-02-15T14:58:29;10.10;;;4.03;;
82372;SDS011;72000;42.828;23.382;2024-02-15T15:00:55;11.48;;;5.30;;
82372;SDS011;72000;42.828;23.382;2024-02-15T15:05:48;14.73;;;5.85;;
82372;SDS011;72000;42.828;23.382;2024-02-15T15:08:32;12.07;;;5.65;;
82372;SDS011;72000;42.828;23.382;2024-02-15T15:11:15;9.60;;;3.55;;
82372;SDS011;72000;42.828;23.382;2024-02-15T15:13:59;8.98;;;3.40;;
82372;SDS011;72000;42.828;23.382;2024-02-15T15:16:25;10.57;;;4.10;;
82372;SDS011;72000;42.828;23.382;2024-02-15T15:18:53;9.27;;;3.70;;